Rock Grove, Illinois
Current Conditions -  °F | °C
As of 4:15 PM on Wednesday 28 Jan 2015 (Local Time) from KFEP Reporting Station
Clear Clear  
Wind Chill: 21°   Ceiling: Unl
Heat Index: 32°   Visibility: 10mi
Dew Point: 26°   Wind: 15mph
Humidity: 78%   Direction: 130°SE
Pressure: 29.96"   Gusts: NA
Location:  42.4147°N, 89.4715°W
Report Text: KFEP 282215Z AUTO 13013KT 10SM CLR 00/M04 A2996 RMK AO2 T10021036
Loading
Personal Weather Stations






























Interactive Weather Map New forecast layout! Learn more

10-Day Weather Forecast

Advertisements
Track Severe Weather on mobile